KCHO/CHO METAR and TAF weather

Enter ICAO airport designator
Station Type Date Time Source
KCHO METAR 2019/06/26 21:53 UTC NOAA

KCHO 262153Z 20007KT 10SM CLR 32/17 A3008 RMK AO2 SLP179 T03170172


Station Type Date Time Source
KCHO Decoded METAR 2019/06/26 21:53 UTC NOAA

CHARLOTTESVILLE-ALBEMARLE, VA, United States (KCHO) 38-08N 078-27W 192M
Jun 26, 2019 - 05:53 PM EDT / 2019.06.26 2153 UTC
Wind: from the SSW (200 degrees) at 8 MPH (7 KT):0
Visibility: 10 mile(s):0
Sky conditions: clear
Temperature: 89.1 F (31.7 C)
Dew Point: 63.0 F (17.2 C)
Relative Humidity: 41%
Pressure (altimeter): 30.08 in. Hg (1018 hPa)
ob: KCHO 262153Z 20007KT 10SM CLR 32/17 A3008 RMK AO2 SLP179 T03170172
cycle: 22

Station Type Date Time Source
KCHO TAF 2019/06/26 18:22 UTC NOAA

TAF KCHO 261720Z 2618/2718 21005KT P6SM FEW060
FM270000 VRB03KT P6SM FEW150

Example: see airport list